createdAt,value
2019-04-25T00:01:09.187Z,13.00
2019-04-25T00:03:38.306Z,12.80
2019-04-25T00:06:05.369Z,12.90
2019-04-25T00:08:34.292Z,12.60
2019-04-25T00:11:01.790Z,12.60
2019-04-25T00:13:29.359Z,12.70
2019-04-25T00:15:57.041Z,12.90
2019-04-25T00:18:24.611Z,12.60
2019-04-25T00:20:54.648Z,12.70
2019-04-25T00:23:22.905Z,12.60
2019-04-25T00:25:51.386Z,12.50
2019-04-25T00:28:19.769Z,12.40
2019-04-25T00:30:48.194Z,12.50
2019-04-25T00:33:16.632Z,12.40
2019-04-25T00:35:44.656Z,12.40
2019-04-25T00:38:12.483Z,12.50
2019-04-25T00:40:42.730Z,12.40
2019-04-25T00:43:08.439Z,12.40
2019-04-25T00:45:35.991Z,12.30
2019-04-25T00:48:04.485Z,12.40
2019-04-25T00:50:32.014Z,12.30
2019-04-25T00:53:00.906Z,12.40
2019-04-25T00:55:28.998Z,12.20
2019-04-25T00:57:57.888Z,12.30
2019-04-25T01:00:26.289Z,12.20
2019-04-25T01:02:54.798Z,12.20
2019-04-25T01:05:23.563Z,12.10
2019-04-25T01:07:52.442Z,12.10
2019-04-25T01:10:18.796Z,12.00
2019-04-25T01:12:46.455Z,12.00
2019-04-25T01:15:15.074Z,12.00
2019-04-25T01:17:43.451Z,12.10
2019-04-25T01:20:11.854Z,11.90
2019-04-25T01:22:40.306Z,11.80
2019-04-25T01:25:08.035Z,11.80
2019-04-25T01:27:35.731Z,11.60
2019-04-25T01:30:06.383Z,11.60
2019-04-25T01:32:34.715Z,11.80
2019-04-25T01:35:15.206Z,11.60
2019-04-25T01:37:47.487Z,11.50
2019-04-25T01:40:14.757Z,11.80
2019-04-25T01:42:59.001Z,11.70
2019-04-25T01:45:26.482Z,11.60
2019-04-25T01:47:55.426Z,11.60
2019-04-25T01:50:23.325Z,11.60
2019-04-25T01:52:50.753Z,11.60
2019-04-25T01:55:18.307Z,11.70
2019-04-25T01:57:45.918Z,11.60
2019-04-25T02:00:15.007Z,11.40
2019-04-25T02:02:43.500Z,11.50
2019-04-25T02:05:11.567Z,11.40
2019-04-25T02:07:39.061Z,11.40
2019-04-25T02:10:07.310Z,11.40
2019-04-25T02:12:39.458Z,11.40
2019-04-25T02:15:06.981Z,11.40
2019-04-25T02:17:35.350Z,11.50
2019-04-25T02:20:05.508Z,11.50
2019-04-25T02:22:34.189Z,11.50
2019-04-25T02:25:00.747Z,11.50
2019-04-25T02:27:28.341Z,11.40
2019-04-25T02:29:56.374Z,11.30
2019-04-25T02:32:24.756Z,11.20
2019-04-25T02:34:50.922Z,11.20
2019-04-25T02:37:18.429Z,11.30
2019-04-25T02:39:47.178Z,11.20
2019-04-25T02:42:16.852Z,11.10
2019-04-25T02:44:44.431Z,11.20
2019-04-25T02:47:27.596Z,11.10
2019-04-25T02:50:00.818Z,11.30
2019-04-25T02:52:34.481Z,11.10
2019-04-25T02:55:01.837Z,11.30
2019-04-25T02:57:28.802Z,11.10
2019-04-25T02:59:58.344Z,11.10
2019-04-25T03:02:24.858Z,11.10
2019-04-25T03:04:54.553Z,11.10
2019-04-25T03:07:20.587Z,11.10
2019-04-25T03:09:49.000Z,11.00
2019-04-25T03:12:29.645Z,11.00
2019-04-25T03:14:45.620Z,11.00
2019-04-25T03:17:14.241Z,10.90
2019-04-25T03:22:15.078Z,10.80
2019-04-25T03:24:41.823Z,10.80
2019-04-25T03:27:09.393Z,10.80
2019-04-25T03:29:37.050Z,10.80
2019-04-25T03:32:09.275Z,10.80
2019-04-25T03:34:35.162Z,10.90
2019-04-25T03:37:01.817Z,10.90
2019-04-25T03:39:28.805Z,10.90
2019-04-25T03:41:57.303Z,11.10
2019-04-25T03:44:25.328Z,11.00
2019-04-25T03:46:53.517Z,10.80
2019-04-25T03:49:21.270Z,10.80
2019-04-25T03:51:48.745Z,10.80
2019-04-25T03:54:17.101Z,10.90
2019-04-25T03:56:51.891Z,10.80
2019-04-25T03:59:14.228Z,10.80
2019-04-25T04:01:39.793Z,10.80
2019-04-25T04:04:07.979Z,10.80
2019-04-25T04:06:34.788Z,10.80
2019-04-25T04:09:03.709Z,10.90
2019-04-25T04:11:30.585Z,10.80
2019-04-25T04:13:58.973Z,10.70
2019-04-25T04:16:27.218Z,10.70
2019-04-25T04:18:56.089Z,10.70
2019-04-25T04:21:28.236Z,10.70
2019-04-25T04:23:58.402Z,10.70
2019-04-25T04:26:25.891Z,10.70
2019-04-25T04:28:53.679Z,10.80
2019-04-25T04:31:21.172Z,10.80
2019-04-25T04:33:48.863Z,10.80
2019-04-25T04:36:17.733Z,11.00
2019-04-25T04:38:45.962Z,10.80
2019-04-25T04:41:14.260Z,10.80
2019-04-25T04:43:41.522Z,10.80
2019-04-25T04:46:10.104Z,10.90
2019-04-25T04:48:37.333Z,11.40
2019-04-25T04:51:04.835Z,11.30
2019-04-25T04:53:35.611Z,11.00
2019-04-25T04:56:00.327Z,11.00
2019-04-25T04:58:28.089Z,11.00
2019-04-25T05:00:55.764Z,11.00
2019-04-25T05:03:34.425Z,11.00
2019-04-25T05:06:07.737Z,11.10
2019-04-25T05:08:35.232Z,11.10
2019-04-25T05:11:04.119Z,11.10
2019-04-25T05:13:34.019Z,11.00
2019-04-25T05:16:00.019Z,11.00
2019-04-25T05:18:37.537Z,11.10
2019-04-25T05:20:55.228Z,11.30
2019-04-25T05:23:23.417Z,11.40
2019-04-25T05:25:51.162Z,11.20
2019-04-25T05:28:19.940Z,11.10
2019-04-25T05:30:49.024Z,11.10
2019-04-25T05:33:19.717Z,11.10
2019-04-25T05:35:44.285Z,11.10
2019-04-25T05:38:13.310Z,11.10
2019-04-25T05:40:45.189Z,11.10
2019-04-25T05:43:13.438Z,11.10
2019-04-25T05:45:40.995Z,11.10
2019-04-25T05:48:08.539Z,11.10
2019-04-25T05:50:36.198Z,11.20
2019-04-25T05:53:04.291Z,11.20
2019-04-25T05:55:33.945Z,11.20
2019-04-25T05:58:00.799Z,11.20
2019-04-25T06:00:28.629Z,11.20
2019-04-25T06:02:57.028Z,11.30
2019-04-25T06:05:26.500Z,11.50
2019-04-25T06:07:54.309Z,11.50
2019-04-25T06:10:23.959Z,11.90
2019-04-25T06:15:48.643Z,11.80
2019-04-25T06:18:16.218Z,11.70
2019-04-25T06:20:44.312Z,11.60
2019-04-25T06:23:13.257Z,11.50
2019-04-25T06:25:40.065Z,11.50
2019-04-25T06:28:23.666Z,11.60
2019-04-25T06:30:50.670Z,11.60
2019-04-25T06:33:18.178Z,11.60
2019-04-25T06:35:46.414Z,11.60
2019-04-25T06:38:13.953Z,11.70
2019-04-25T06:40:41.463Z,11.70
2019-04-25T06:43:09.059Z,11.80
2019-04-25T06:45:37.504Z,12.00
2019-04-25T06:48:06.548Z,12.10
2019-04-25T06:50:35.289Z,12.00
2019-04-25T06:53:01.625Z,12.10
2019-04-25T06:55:30.267Z,12.30
2019-04-25T06:58:09.209Z,12.30
2019-04-25T07:00:28.488Z,12.40
2019-04-25T07:02:53.221Z,12.40
2019-04-25T07:05:30.585Z,12.40
2019-04-25T07:07:48.862Z,12.40
2019-04-25T07:10:17.296Z,12.20
2019-04-25T07:12:44.883Z,12.20
2019-04-25T07:15:13.797Z,12.20
2019-04-25T07:17:39.906Z,12.10
2019-04-25T07:20:07.472Z,12.10
2019-04-25T07:22:36.213Z,12.10
2019-04-25T07:25:03.647Z,12.10
2019-04-25T07:27:36.942Z,12.20
2019-04-25T07:30:08.171Z,12.10
2019-04-25T07:32:51.321Z,12.10
2019-04-25T07:35:18.798Z,12.10
2019-04-25T07:37:46.365Z,12.10
2019-04-25T07:40:14.006Z,12.10
2019-04-25T07:42:41.443Z,12.00
2019-04-25T07:45:09.024Z,12.00
2019-04-25T07:47:36.531Z,12.00
2019-04-25T07:50:04.100Z,12.00
2019-04-25T07:52:33.228Z,12.00
2019-04-25T07:54:59.108Z,12.10
2019-04-25T07:57:26.772Z,12.10
2019-04-25T07:59:54.885Z,12.10
2019-04-25T08:02:23.331Z,12.10
2019-04-25T08:04:50.798Z,12.20
2019-04-25T08:07:18.488Z,12.20
2019-04-25T08:09:46.189Z,12.30
2019-04-25T08:12:13.730Z,12.30
2019-04-25T08:14:43.730Z,12.40
2019-04-25T08:17:10.153Z,12.40
2019-04-25T08:19:37.718Z,12.60
2019-04-25T08:22:05.190Z,12.70
2019-04-25T08:24:34.594Z,12.80
2019-04-25T08:27:00.313Z,12.90
2019-04-25T08:29:27.862Z,12.90
2019-04-25T08:31:55.338Z,13.00
2019-04-25T08:34:24.333Z,13.10
2019-04-25T08:36:50.359Z,13.20
2019-04-25T08:39:17.840Z,13.10
2019-04-25T08:41:45.840Z,13.10
2019-04-25T08:44:14.176Z,13.20
2019-04-25T08:46:41.530Z,13.20
2019-04-25T08:52:01.093Z,13.30
2019-04-25T08:54:34.372Z,13.60
2019-04-25T08:57:00.514Z,13.90
2019-04-25T08:59:40.066Z,13.90
2019-04-25T09:02:07.770Z,14.60
2019-04-25T09:04:38.120Z,14.50
2019-04-25T09:07:05.699Z,14.60
2019-04-25T09:09:35.336Z,14.80
2019-04-25T09:12:01.717Z,15.20
2019-04-25T09:14:29.317Z,15.20
2019-04-25T09:16:57.016Z,15.30
2019-04-25T09:19:25.020Z,15.20
2019-04-25T09:21:53.365Z,14.90
2019-04-25T09:24:20.787Z,14.80
2019-04-25T09:26:48.349Z,14.80
2019-04-25T09:29:19.313Z,14.90
2019-04-25T09:31:45.143Z,14.90
2019-04-25T09:34:11.046Z,15.10
2019-04-25T09:36:38.615Z,15.40
2019-04-25T09:39:07.143Z,15.60
2019-04-25T09:41:36.098Z,15.60
2019-04-25T09:44:04.789Z,15.50
2019-04-25T09:46:32.274Z,15.50
2019-04-25T09:49:04.225Z,15.70
2019-04-25T09:51:30.586Z,15.60
2019-04-25T09:54:10.185Z,15.60
2019-04-25T09:56:44.758Z,15.60
2019-04-25T09:59:13.683Z,15.60
2019-04-25T10:01:40.195Z,15.80
2019-04-25T10:04:08.158Z,16.50
2019-04-25T10:06:37.259Z,16.40
2019-04-25T10:09:05.034Z,16.60
2019-04-25T10:11:33.500Z,16.60
2019-04-25T10:17:03.681Z,16.50
2019-04-25T10:19:30.553Z,16.90
2019-04-25T10:21:58.493Z,16.90
2019-04-25T10:24:25.975Z,17.00
2019-04-25T10:26:55.575Z,16.90
2019-04-25T10:29:23.190Z,16.90
2019-04-25T10:31:51.566Z,16.90
2019-04-25T10:34:20.974Z,16.80
2019-04-25T10:36:49.271Z,17.00
2019-04-25T10:39:16.796Z,17.00
2019-04-25T10:41:46.103Z,17.30
2019-04-25T10:46:41.848Z,17.50
2019-04-25T10:49:09.318Z,17.50
2019-04-25T10:51:37.095Z,17.50
2019-04-25T10:54:04.689Z,17.30
2019-04-25T10:56:33.490Z,17.20
2019-04-25T10:58:59.761Z,17.20
2019-04-25T11:01:27.331Z,17.10
2019-04-25T11:03:57.527Z,16.90
2019-04-25T11:06:25.138Z,16.80
2019-04-25T11:08:55.467Z,16.80
2019-04-25T11:11:21.178Z,16.80
2019-04-25T11:13:48.757Z,16.80
2019-04-25T11:16:17.116Z,17.30
2019-04-25T11:18:46.108Z,17.30
2019-04-25T11:21:13.786Z,17.80
2019-04-25T11:23:41.379Z,17.80
2019-04-25T11:26:08.141Z,17.50
2019-04-25T11:28:36.616Z,17.40
2019-04-25T11:31:05.257Z,17.30
2019-04-25T11:33:33.508Z,17.20
2019-04-25T11:36:01.661Z,17.20
2019-04-25T11:38:31.559Z,17.40
2019-04-25T11:40:59.836Z,17.60
2019-04-25T11:43:27.453Z,17.50
2019-04-25T11:45:56.038Z,17.70
2019-04-25T11:48:24.381Z,18.00
2019-04-25T11:50:55.701Z,17.90
2019-04-25T11:53:20.915Z,17.80
2019-04-25T11:55:50.103Z,17.80
2019-04-25T11:58:16.871Z,17.60
2019-04-25T12:00:45.914Z,17.60
2019-04-25T12:03:12.074Z,17.60
2019-04-25T12:05:39.572Z,17.70
2019-04-25T12:10:45.773Z,17.70
2019-04-25T12:13:11.440Z,17.60
2019-04-25T12:15:39.240Z,17.60
2019-04-25T12:18:06.802Z,17.50
2019-04-25T12:20:34.378Z,17.60
2019-04-25T12:23:08.336Z,17.60
2019-04-25T12:25:29.797Z,17.60
2019-04-25T12:27:57.361Z,17.50
2019-04-25T12:30:36.805Z,17.40
2019-04-25T12:32:53.821Z,17.50
2019-04-25T12:35:19.932Z,17.50
2019-04-25T12:37:48.120Z,17.50
2019-04-25T12:40:15.181Z,17.60
2019-04-25T12:42:44.380Z,17.80
2019-04-25T12:45:12.153Z,17.80
2019-04-25T12:47:39.628Z,17.80
2019-04-25T12:50:07.193Z,17.90
2019-04-25T12:52:34.755Z,17.90
2019-04-25T12:55:03.957Z,17.90
2019-04-25T12:57:30.837Z,17.90
2019-04-25T12:59:59.100Z,17.70
2019-04-25T13:02:26.757Z,17.70
2019-04-25T13:04:55.460Z,17.70
2019-04-25T13:07:23.653Z,17.60
2019-04-25T13:09:52.273Z,17.60
2019-04-25T13:12:18.645Z,17.60
2019-04-25T13:14:46.133Z,17.60
2019-04-25T13:17:14.372Z,17.50
2019-04-25T13:19:41.868Z,17.50
2019-04-25T13:22:10.190Z,17.50
2019-04-25T13:24:37.701Z,17.50
2019-04-25T13:27:14.223Z,17.20
2019-04-25T13:29:46.520Z,17.20
2019-04-25T13:32:15.943Z,17.20
2019-04-25T13:34:45.081Z,17.10
2019-04-25T13:37:11.638Z,17.10
2019-04-25T13:39:39.351Z,16.90
2019-04-25T13:42:07.789Z,16.90
2019-04-25T13:44:34.476Z,16.80
2019-04-25T13:47:02.041Z,16.70
2019-04-25T13:49:29.601Z,16.60
2019-04-25T13:51:57.168Z,16.70
2019-04-25T13:54:25.066Z,16.80
2019-04-25T13:56:53.427Z,16.70
2019-04-25T13:59:21.703Z,16.60
2019-04-25T14:01:48.209Z,16.60
2019-04-25T14:04:15.689Z,16.50
2019-04-25T14:06:43.282Z,16.20
2019-04-25T14:09:10.766Z,16.20
2019-04-25T14:11:39.135Z,16.10
2019-04-25T14:14:07.551Z,16.00
2019-04-25T14:16:35.186Z,16.00
2019-04-25T14:19:04.481Z,15.70
2019-04-25T14:21:33.431Z,15.70
2019-04-25T14:24:00.259Z,15.60
2019-04-25T14:26:29.128Z,15.80
2019-04-25T14:28:56.118Z,15.70
2019-04-25T14:31:35.173Z,15.80
2019-04-25T14:33:51.820Z,15.60
2019-04-25T14:36:19.362Z,15.40
2019-04-25T14:41:10.804Z,15.10
2019-04-25T14:43:38.378Z,15.20
2019-04-25T14:46:06.044Z,15.20
2019-04-25T14:48:33.884Z,15.10
2019-04-25T14:51:01.374Z,15.20
2019-04-25T14:53:29.058Z,15.10
2019-04-25T14:55:56.542Z,14.90
2019-04-25T14:58:24.104Z,14.90
2019-04-25T15:00:52.334Z,14.90
2019-04-25T15:03:20.017Z,14.90
2019-04-25T15:05:47.580Z,14.90
2019-04-25T15:08:15.163Z,15.00
2019-04-25T15:10:42.691Z,15.00
2019-04-25T15:13:10.175Z,15.20
2019-04-25T15:15:39.190Z,14.80
2019-04-25T15:18:07.554Z,14.90
2019-04-25T15:20:35.061Z,14.90
2019-04-25T15:23:03.471Z,15.00
2019-04-25T15:25:31.798Z,14.80
2019-04-25T15:27:58.547Z,14.90
2019-04-25T15:30:29.478Z,15.10
2019-04-25T15:32:56.821Z,15.00
2019-04-25T15:35:40.168Z,15.00
2019-04-25T15:38:08.427Z,14.90
2019-04-25T15:40:41.170Z,14.90
2019-04-25T15:43:08.332Z,15.20
2019-04-25T15:45:36.697Z,15.20
2019-04-25T15:48:04.307Z,15.50
2019-04-25T15:50:32.037Z,15.40
2019-04-25T15:52:59.669Z,15.50
2019-04-25T15:55:27.368Z,15.60
2019-04-25T15:57:55.551Z,15.50
2019-04-25T16:00:39.148Z,15.50
2019-04-25T16:03:07.388Z,15.60
2019-04-25T16:05:35.579Z,15.60
2019-04-25T16:08:02.485Z,15.50
2019-04-25T16:10:30.105Z,15.40
2019-04-25T16:12:57.862Z,15.30
2019-04-25T16:15:25.539Z,15.40
2019-04-25T16:17:53.109Z,15.50
2019-04-25T16:20:20.576Z,15.50
2019-04-25T16:22:48.225Z,15.80
2019-04-25T16:25:15.700Z,15.70
2019-04-25T16:27:43.176Z,15.70
2019-04-25T16:30:11.534Z,15.50
2019-04-25T16:32:39.034Z,15.40
2019-04-25T16:35:06.665Z,15.60
2019-04-25T16:37:34.536Z,15.70
2019-04-25T16:40:01.746Z,15.70
2019-04-25T16:42:30.239Z,15.70
2019-04-25T16:44:56.860Z,15.70
2019-04-25T16:47:25.367Z,15.50
2019-04-25T16:49:52.881Z,15.50
2019-04-25T16:52:21.170Z,15.70
2019-04-25T16:54:49.553Z,15.60
2019-04-25T16:57:17.198Z,15.50
2019-04-25T16:59:44.712Z,15.60
2019-04-25T17:02:12.222Z,15.60
2019-04-25T17:04:39.700Z,15.40
2019-04-25T17:07:07.174Z,15.60
2019-04-25T17:09:36.023Z,15.50
2019-04-25T17:12:03.889Z,15.50
2019-04-25T17:14:37.478Z,15.40
2019-04-25T17:17:04.622Z,15.40
2019-04-25T17:22:27.444Z,15.50
2019-04-25T17:24:55.013Z,15.60
2019-04-25T17:27:22.653Z,15.50
2019-04-25T17:29:50.172Z,15.50
2019-04-25T17:32:49.479Z,15.70
2019-04-25T17:35:04.917Z,15.60
2019-04-25T17:37:33.034Z,15.40
2019-04-25T17:40:04.911Z,15.40
2019-04-25T17:42:33.584Z,15.40
2019-04-25T17:45:00.151Z,15.30
2019-04-25T17:47:27.767Z,15.30
2019-04-25T17:49:56.053Z,15.30
2019-04-25T17:52:24.307Z,15.20
2019-04-25T17:54:51.796Z,15.10
2019-04-25T17:57:21.997Z,15.10
2019-04-25T17:59:50.258Z,15.10
2019-04-25T18:02:18.571Z,15.10
2019-04-25T18:04:46.931Z,15.10
2019-04-25T18:07:14.477Z,15.10
2019-04-25T18:09:41.960Z,15.00
2019-04-25T18:12:09.760Z,15.10
2019-04-25T18:14:38.431Z,15.10
2019-04-25T18:17:06.867Z,15.00
2019-04-25T18:19:36.362Z,15.00
2019-04-25T18:22:05.765Z,15.00
2019-04-25T18:24:54.288Z,15.00
2019-04-25T18:27:26.513Z,14.90
2019-04-25T18:29:54.345Z,14.90
2019-04-25T18:32:22.981Z,14.90
2019-04-25T18:34:57.788Z,14.90
2019-04-25T18:37:41.045Z,14.90
2019-04-25T18:43:09.873Z,14.70
2019-04-25T18:45:38.417Z,14.70
2019-04-25T18:48:06.603Z,14.60
2019-04-25T18:50:34.304Z,14.60
2019-04-25T18:53:03.588Z,14.70
2019-04-25T18:55:33.724Z,14.70
2019-04-25T18:58:05.974Z,14.60
2019-04-25T19:00:34.101Z,14.60
2019-04-25T19:03:06.447Z,14.60
2019-04-25T19:05:37.167Z,14.30
2019-04-25T19:08:04.836Z,14.30
2019-04-25T19:10:32.383Z,14.30
2019-04-25T19:13:11.996Z,14.30
2019-04-25T19:15:28.489Z,14.20
2019-04-25T19:17:56.252Z,14.20
2019-04-25T19:20:23.745Z,14.00
2019-04-25T19:22:51.231Z,14.20
2019-04-25T19:25:19.033Z,14.00
2019-04-25T19:27:47.297Z,14.30
2019-04-25T19:30:14.776Z,14.20
2019-04-25T19:32:43.138Z,14.20
2019-04-25T19:35:11.484Z,14.10
2019-04-25T19:37:39.499Z,14.00
2019-04-25T19:40:26.203Z,14.30
2019-04-25T19:42:54.941Z,14.20
2019-04-25T19:45:22.542Z,14.20
2019-04-25T19:47:51.515Z,14.40
2019-04-25T19:50:19.617Z,14.20
2019-04-25T19:52:47.613Z,14.20
2019-04-25T19:55:14.682Z,14.30
2019-04-25T19:57:43.809Z,14.10
2019-04-25T20:00:10.785Z,14.10
2019-04-25T20:02:38.457Z,14.30
2019-04-25T20:05:07.646Z,14.10
2019-04-25T20:07:36.761Z,13.90
2019-04-25T20:10:04.234Z,14.20
2019-04-25T20:12:33.426Z,14.00
2019-04-25T20:15:00.937Z,14.00
2019-04-25T20:17:28.419Z,13.90
2019-04-25T20:19:55.978Z,13.80
2019-04-25T20:22:23.481Z,14.10
2019-04-25T20:24:50.994Z,13.90
2019-04-25T20:27:18.607Z,13.90
2019-04-25T20:29:46.575Z,13.80
2019-04-25T20:32:14.451Z,13.60
2019-04-25T20:34:42.743Z,13.50
2019-04-25T20:37:10.231Z,13.40
2019-04-25T20:39:37.743Z,13.20
2019-04-25T20:42:05.374Z,13.30
2019-04-25T20:44:33.632Z,13.70
2019-04-25T20:47:01.159Z,13.70
2019-04-25T20:49:28.651Z,13.70
2019-04-25T20:51:57.114Z,13.30
2019-04-25T20:54:26.189Z,13.40
2019-04-25T20:56:53.723Z,13.40
2019-04-25T20:59:21.254Z,13.40
2019-04-25T21:01:49.658Z,13.30
2019-04-25T21:07:10.570Z,13.10
2019-04-25T21:09:38.925Z,13.00
2019-04-25T21:12:07.298Z,13.20
2019-04-25T21:14:50.629Z,13.20
2019-04-25T21:17:18.112Z,13.20
2019-04-25T21:19:48.708Z,13.00
2019-04-25T21:22:14.779Z,12.90
2019-04-25T21:24:43.059Z,12.80
2019-04-25T21:27:11.895Z,12.80
2019-04-25T21:29:39.487Z,12.90
2019-04-25T21:32:06.978Z,12.70
2019-04-25T21:34:35.618Z,12.70
2019-04-25T21:37:05.042Z,12.70
2019-04-25T21:42:29.810Z,12.60
2019-04-25T21:44:58.236Z,12.60
2019-04-25T21:47:25.007Z,12.90
2019-04-25T21:49:54.347Z,12.80
2019-04-25T21:52:23.305Z,12.90
2019-04-25T21:54:51.679Z,12.90
2019-04-25T21:57:22.183Z,12.90
2019-04-25T21:59:58.976Z,12.70
2019-04-25T22:02:17.299Z,12.50
2019-04-25T22:04:45.000Z,12.60
2019-04-25T22:07:13.262Z,12.50
2019-04-25T22:09:40.938Z,12.40
2019-04-25T22:12:08.622Z,12.40
2019-04-25T22:14:36.703Z,12.50
2019-04-25T22:17:04.187Z,12.50
2019-04-25T22:19:31.813Z,12.40
2019-04-25T22:21:59.323Z,12.40
2019-04-25T22:24:26.851Z,12.30
2019-04-25T22:26:54.357Z,12.30
2019-04-25T22:29:21.945Z,12.20
2019-04-25T22:34:52.346Z,12.20
2019-04-25T22:37:15.101Z,12.30
2019-04-25T22:39:42.627Z,12.20
2019-04-25T22:42:10.915Z,12.20
2019-04-25T22:44:38.526Z,12.20
2019-04-25T22:47:06.332Z,12.10
2019-04-25T22:49:34.415Z,12.10
2019-04-25T22:52:04.981Z,12.10
2019-04-25T22:54:32.453Z,12.10
2019-04-25T22:57:00.094Z,12.10
2019-04-25T22:59:28.267Z,12.20
2019-04-25T23:01:56.516Z,12.20
2019-04-25T23:04:30.747Z,12.00
2019-04-25T23:06:58.249Z,12.00
2019-04-25T23:09:25.883Z,12.00
2019-04-25T23:11:54.322Z,11.90
2019-04-25T23:14:21.921Z,11.90
2019-04-25T23:16:50.993Z,11.90
2019-04-25T23:19:18.519Z,11.90
2019-04-25T23:21:46.183Z,11.90
2019-04-25T23:24:14.449Z,11.70
2019-04-25T23:26:51.445Z,11.70
2019-04-25T23:29:19.897Z,11.70
2019-04-25T23:31:47.367Z,11.60
2019-04-25T23:34:15.749Z,11.80
2019-04-25T23:36:43.306Z,11.80
2019-04-25T23:39:11.275Z,11.70
2019-04-25T23:41:38.452Z,11.60
2019-04-25T23:44:07.856Z,11.80
2019-04-25T23:46:34.289Z,11.80
2019-04-25T23:49:01.947Z,11.80
2019-04-25T23:51:29.470Z,11.60
2019-04-25T23:53:57.179Z,11.70
2019-04-25T23:56:24.661Z,11.60
2019-04-25T23:58:52.170Z,11.60
